createdAt,value
2023-01-17T00:00:10.262Z,84.88
2023-01-17T00:01:07.749Z,84.93
2023-01-17T00:02:04.284Z,86.02
2023-01-17T00:03:00.824Z,85.90
2023-01-17T00:04:15.775Z,84.78
2023-01-17T00:05:33.676Z,85.55
2023-01-17T00:06:48.954Z,85.11
2023-01-17T00:08:04.153Z,85.53
2023-01-17T00:09:19.186Z,86.02
2023-01-17T00:10:17.940Z,86.62
2023-01-17T00:11:14.514Z,86.17
2023-01-17T00:12:11.129Z,86.48
2023-01-17T00:13:07.605Z,85.89
2023-01-17T00:14:04.045Z,86.21
2023-01-17T00:15:00.921Z,86.51
2023-01-17T00:15:57.489Z,86.32
2023-01-17T00:16:54.204Z,85.96
2023-01-17T00:17:51.422Z,86.39
2023-01-17T00:19:07.856Z,86.66
2023-01-17T00:20:22.875Z,86.70
2023-01-17T00:21:37.884Z,86.77
2023-01-17T00:22:53.283Z,87.05
2023-01-17T00:24:08.322Z,87.87
2023-01-17T00:25:23.904Z,87.14
2023-01-17T00:26:20.500Z,87.76
2023-01-17T00:27:16.926Z,87.22
2023-01-17T00:28:13.399Z,87.31
2023-01-17T00:29:09.774Z,86.92
2023-01-17T00:30:06.586Z,87.04
2023-01-17T00:31:03.886Z,87.34
2023-01-17T00:32:00.331Z,87.47
2023-01-17T00:32:56.723Z,87.34
2023-01-17T00:33:53.130Z,87.18
2023-01-17T00:34:49.514Z,88.22
2023-01-17T00:35:46.019Z,87.62
2023-01-17T00:36:42.479Z,88.04
2023-01-17T00:37:38.918Z,88.37
2023-01-17T00:38:39.111Z,88.39
2023-01-17T00:39:35.571Z,88.31
2023-01-17T00:40:32.932Z,87.96
2023-01-17T00:41:29.344Z,87.91
2023-01-17T00:42:25.738Z,87.44
2023-01-17T00:43:41.598Z,88.18
2023-01-17T00:44:56.654Z,88.51
2023-01-17T00:46:11.929Z,89.16
2023-01-17T00:47:27.056Z,89.71
2023-01-17T00:48:41.963Z,89.76
2023-01-17T00:49:56.972Z,89.45
2023-01-17T00:51:12.287Z,89.41
2023-01-17T00:52:27.231Z,89.08
2023-01-17T00:53:42.110Z,89.52
2023-01-17T00:54:57.054Z,89.12
2023-01-17T00:56:12.083Z,88.71
2023-01-17T00:57:27.182Z,88.76
2023-01-17T00:58:42.243Z,89.73
2023-01-17T00:59:57.548Z,89.43
2023-01-17T01:01:13.048Z,88.44
2023-01-17T01:02:28.617Z,87.99
2023-01-17T01:03:43.954Z,88.42
2023-01-17T01:04:59.307Z,88.87
2023-01-17T01:06:14.232Z,88.50
2023-01-17T01:07:29.447Z,88.77
2023-01-17T01:08:46.295Z,88.65
2023-01-17T01:10:01.467Z,88.47
2023-01-17T01:11:16.789Z,88.79
2023-01-17T01:12:31.717Z,88.35
2023-01-17T01:13:47.646Z,88.03
2023-01-17T01:15:02.451Z,87.77
2023-01-17T01:16:23.652Z,88.22
2023-01-17T01:17:38.777Z,89.34
2023-01-17T01:18:53.674Z,89.23
2023-01-17T01:20:08.863Z,88.95
2023-01-17T01:21:23.867Z,88.56
2023-01-17T01:22:39.029Z,88.81
2023-01-17T01:23:53.937Z,88.72
2023-01-17T01:25:08.764Z,88.70
2023-01-17T01:26:23.851Z,87.97
2023-01-17T01:27:38.874Z,88.43
2023-01-17T01:28:53.743Z,89.05
2023-01-17T01:30:08.624Z,88.96
2023-01-17T01:31:23.918Z,88.70
2023-01-17T01:32:38.900Z,88.57
2023-01-17T01:33:35.381Z,87.63
2023-01-17T01:34:32.014Z,88.03
2023-01-17T01:35:28.622Z,88.60
2023-01-17T01:36:25.104Z,88.67
2023-01-17T01:37:24.165Z,88.83
2023-01-17T01:38:24.503Z,88.86
2023-01-17T01:39:21.002Z,88.59
2023-01-17T01:40:17.989Z,88.42
2023-01-17T01:41:14.472Z,88.97
2023-01-17T01:42:14.612Z,89.01
2023-01-17T01:43:12.248Z,88.66
2023-01-17T01:44:34.772Z,88.13
2023-01-17T01:45:32.386Z,87.77
2023-01-17T01:46:36.134Z,88.03
2023-01-17T01:47:37.063Z,88.03
2023-01-17T01:48:48.711Z,88.06
2023-01-17T01:49:45.233Z,87.94
2023-01-17T01:50:41.807Z,88.71
2023-01-17T01:51:40.168Z,88.22
2023-01-17T01:52:39.995Z,89.02
2023-01-17T01:53:38.791Z,87.57
2023-01-17T01:54:37.694Z,87.54
2023-01-17T01:55:39.876Z,87.66
2023-01-17T01:56:36.607Z,87.51
2023-01-17T01:57:37.963Z,87.50
2023-01-17T01:58:36.929Z,87.45
2023-01-17T01:59:34.000Z,87.54
2023-01-17T02:00:34.603Z,87.93
2023-01-17T02:01:31.555Z,87.46
2023-01-17T02:02:30.181Z,86.79
2023-01-17T02:03:29.568Z,86.92
2023-01-17T02:04:27.607Z,87.40
2023-01-17T02:05:25.521Z,86.90
2023-01-17T02:06:25.053Z,87.13
2023-01-17T02:07:25.523Z,87.54
2023-01-17T02:08:23.408Z,87.83
2023-01-17T02:09:20.181Z,87.01
2023-01-17T02:10:16.879Z,86.25
2023-01-17T02:11:13.427Z,86.17
2023-01-17T02:12:10.368Z,87.32
2023-01-17T02:13:08.104Z,87.56
2023-01-17T02:14:04.893Z,87.08
2023-01-17T02:15:02.414Z,87.27
2023-01-17T02:16:17.463Z,87.27
2023-01-17T02:17:32.372Z,87.47
2023-01-17T02:18:43.383Z,86.87
2023-01-17T02:19:39.823Z,87.14
2023-01-17T02:20:42.082Z,86.62
2023-01-17T02:21:44.116Z,87.04
2023-01-17T02:22:55.800Z,87.01
2023-01-17T02:24:07.283Z,86.82
2023-01-17T02:25:03.808Z,87.07
2023-01-17T02:26:12.346Z,86.45
2023-01-17T02:27:22.260Z,86.08
2023-01-17T02:28:18.730Z,86.63
2023-01-17T02:29:30.812Z,86.66
2023-01-17T02:30:39.461Z,86.20
2023-01-17T02:31:51.293Z,86.44
2023-01-17T02:32:47.738Z,85.97
2023-01-17T02:33:56.929Z,85.82
2023-01-17T02:34:53.356Z,85.96
2023-01-17T02:36:10.235Z,85.92
2023-01-17T02:37:21.935Z,86.33
2023-01-17T02:38:37.118Z,86.49
2023-01-17T02:39:43.154Z,85.79
2023-01-17T02:40:43.436Z,86.13
2023-01-17T02:41:43.663Z,86.74
2023-01-17T02:42:43.090Z,85.65
2023-01-17T02:43:40.202Z,85.81
2023-01-17T02:44:40.931Z,85.93
2023-01-17T02:45:37.555Z,85.48
2023-01-17T02:46:42.844Z,85.78
2023-01-17T02:47:39.349Z,85.53
2023-01-17T02:48:37.576Z,85.55
2023-01-17T02:49:34.055Z,86.03
2023-01-17T02:50:50.746Z,85.98
2023-01-17T02:52:07.141Z,85.86
2023-01-17T02:53:17.638Z,86.28
2023-01-17T02:54:16.658Z,86.45
2023-01-17T02:55:32.892Z,87.46
2023-01-17T02:56:32.712Z,87.60
2023-01-17T02:57:48.040Z,88.49
2023-01-17T02:59:03.790Z,88.87
2023-01-17T03:00:05.056Z,89.51
2023-01-17T03:01:05.021Z,90.46
2023-01-17T03:02:04.613Z,90.43
2023-01-17T03:03:14.356Z,90.75
2023-01-17T03:04:22.300Z,91.14
2023-01-17T03:05:32.076Z,90.54
2023-01-17T03:06:31.089Z,90.91
2023-01-17T03:07:28.487Z,91.26
2023-01-17T03:08:25.941Z,91.67
2023-01-17T03:09:22.731Z,91.32
2023-01-17T03:10:20.469Z,91.53
2023-01-17T03:11:17.617Z,91.13
2023-01-17T03:12:14.215Z,91.07
2023-01-17T03:13:10.724Z,91.35
2023-01-17T03:14:07.230Z,91.24
2023-01-17T03:15:03.970Z,90.29
2023-01-17T03:16:00.704Z,90.35
2023-01-17T03:16:57.221Z,90.44
2023-01-17T03:17:55.501Z,91.55
2023-01-17T03:18:53.792Z,91.52
2023-01-17T03:19:50.344Z,91.76
2023-01-17T03:20:46.998Z,91.99
2023-01-17T03:21:43.548Z,92.31
2023-01-17T03:22:40.104Z,92.07
2023-01-17T03:23:36.686Z,91.91
2023-01-17T03:24:33.139Z,91.95
2023-01-17T03:25:29.697Z,92.64
2023-01-17T03:26:26.280Z,92.37
2023-01-17T03:27:22.729Z,92.72
2023-01-17T03:28:19.266Z,92.40
2023-01-17T03:29:16.682Z,90.88
2023-01-17T03:30:13.881Z,90.77
2023-01-17T03:31:13.797Z,90.15
2023-01-17T03:32:10.453Z,90.50
2023-01-17T03:33:06.981Z,89.91
2023-01-17T03:34:03.450Z,89.88
2023-01-17T03:35:00.037Z,90.06
2023-01-17T03:35:58.237Z,89.04
2023-01-17T03:36:54.796Z,89.04
2023-01-17T03:37:51.257Z,88.96
2023-01-17T03:38:47.688Z,88.49
2023-01-17T03:39:44.174Z,88.43
2023-01-17T03:40:41.298Z,88.40
2023-01-17T03:41:37.810Z,88.66
2023-01-17T03:42:34.244Z,87.97
2023-01-17T03:43:30.774Z,88.27
2023-01-17T03:44:27.203Z,88.30
2023-01-17T03:45:23.654Z,88.67
2023-01-17T03:46:24.323Z,88.66
2023-01-17T03:47:20.803Z,87.87
2023-01-17T03:48:17.593Z,87.88
2023-01-17T03:49:14.078Z,86.85
2023-01-17T03:50:10.827Z,87.05
2023-01-17T03:51:07.368Z,87.15
2023-01-17T03:52:04.075Z,87.15
2023-01-17T03:53:00.766Z,87.26
2023-01-17T03:53:57.362Z,87.70
2023-01-17T03:54:53.842Z,87.02
2023-01-17T03:55:50.326Z,86.82
2023-01-17T03:56:46.872Z,86.46
2023-01-17T03:57:43.402Z,86.96
2023-01-17T03:58:39.969Z,87.17
2023-01-17T03:59:36.400Z,87.33
2023-01-17T04:00:32.941Z,87.49
2023-01-17T04:01:29.664Z,87.47
2023-01-17T04:02:26.206Z,87.57
2023-01-17T04:03:22.738Z,88.70
2023-01-17T04:04:19.282Z,88.32
2023-01-17T04:05:16.181Z,88.48
2023-01-17T04:06:12.747Z,88.35
2023-01-17T04:07:09.239Z,87.17
2023-01-17T04:08:07.287Z,85.66
2023-01-17T04:09:03.869Z,85.30
2023-01-17T04:10:00.417Z,84.51
2023-01-17T04:10:57.115Z,84.97
2023-01-17T04:11:53.613Z,85.57
2023-01-17T04:12:50.129Z,85.12
2023-01-17T04:13:49.493Z,84.77
2023-01-17T04:14:45.919Z,85.44
2023-01-17T04:15:43.706Z,85.99
2023-01-17T04:16:40.214Z,86.32
2023-01-17T04:17:36.933Z,86.23
2023-01-17T04:18:33.465Z,86.64
2023-01-17T04:19:31.349Z,86.98
2023-01-17T04:20:37.958Z,87.16
2023-01-17T04:21:34.391Z,87.04
2023-01-17T04:22:31.689Z,86.63
2023-01-17T04:23:28.199Z,86.11
2023-01-17T04:24:24.707Z,86.05
2023-01-17T04:25:21.220Z,85.90
2023-01-17T04:26:17.658Z,86.47
2023-01-17T04:27:14.435Z,86.80
2023-01-17T04:28:11.394Z,86.66
2023-01-17T04:29:07.883Z,86.63
2023-01-17T04:30:04.533Z,86.57
2023-01-17T04:31:01.014Z,86.73
2023-01-17T04:31:57.576Z,87.06
2023-01-17T04:32:54.339Z,87.08
2023-01-17T04:33:50.856Z,88.05
2023-01-17T04:34:47.338Z,87.63
2023-01-17T04:35:43.926Z,87.53
2023-01-17T04:36:40.455Z,87.53
2023-01-17T04:37:37.028Z,86.84
2023-01-17T04:38:33.499Z,86.89
2023-01-17T04:39:30.024Z,86.98
2023-01-17T04:40:26.790Z,86.63
2023-01-17T04:41:23.271Z,86.03
2023-01-17T04:42:19.720Z,85.76
2023-01-17T04:43:16.701Z,85.95
2023-01-17T04:44:13.209Z,85.93
2023-01-17T04:45:09.955Z,85.66
2023-01-17T04:46:10.197Z,85.03
2023-01-17T04:47:06.788Z,85.25
2023-01-17T04:48:05.106Z,85.42
2023-01-17T04:49:01.584Z,86.24
2023-01-17T04:49:58.042Z,86.20
2023-01-17T04:51:00.846Z,85.69
2023-01-17T04:51:57.308Z,85.96
2023-01-17T04:52:53.747Z,85.87
2023-01-17T04:53:50.239Z,85.92
2023-01-17T04:54:49.702Z,86.12
2023-01-17T04:55:46.612Z,86.07
2023-01-17T04:56:43.133Z,85.73
2023-01-17T04:57:39.680Z,85.85
2023-01-17T04:58:36.263Z,85.74
2023-01-17T04:59:32.744Z,86.61
2023-01-17T05:00:29.221Z,86.83
2023-01-17T05:01:26.029Z,86.74
2023-01-17T05:02:22.586Z,85.41
2023-01-17T05:03:19.914Z,85.30
2023-01-17T05:04:16.447Z,84.72
2023-01-17T05:05:13.395Z,84.92
2023-01-17T05:06:09.972Z,84.69
2023-01-17T05:07:06.853Z,84.87
2023-01-17T05:08:03.346Z,85.30
2023-01-17T05:08:59.863Z,85.22
2023-01-17T05:09:56.354Z,85.35
2023-01-17T05:10:53.072Z,85.81
2023-01-17T05:11:49.497Z,86.59
2023-01-17T05:12:52.974Z,85.53
2023-01-17T05:13:49.634Z,86.25
2023-01-17T05:14:46.112Z,86.32
2023-01-17T05:15:42.628Z,86.37
2023-01-17T05:16:39.143Z,86.35
2023-01-17T05:17:35.608Z,86.39
2023-01-17T05:18:32.068Z,86.52
2023-01-17T05:19:28.793Z,86.61
2023-01-17T05:20:26.165Z,86.52
2023-01-17T05:21:22.782Z,87.14
2023-01-17T05:22:19.216Z,87.19
2023-01-17T05:23:15.684Z,85.99
2023-01-17T05:24:12.132Z,85.55
2023-01-17T05:25:08.834Z,85.73
2023-01-17T05:26:05.354Z,85.39
2023-01-17T05:27:03.288Z,85.79
2023-01-17T05:28:00.333Z,86.25
2023-01-17T05:28:56.779Z,86.20
2023-01-17T05:29:53.274Z,87.06
2023-01-17T05:30:49.802Z,87.11
2023-01-17T05:31:46.408Z,86.79
2023-01-17T05:32:44.732Z,87.00
2023-01-17T05:33:41.249Z,86.52
2023-01-17T05:34:37.797Z,86.94
2023-01-17T05:35:34.276Z,87.85
2023-01-17T05:36:32.236Z,88.24
2023-01-17T05:37:28.752Z,88.21
2023-01-17T05:38:25.250Z,88.05
2023-01-17T05:39:21.770Z,87.69
2023-01-17T05:40:19.047Z,88.18
2023-01-17T05:41:15.514Z,87.91
2023-01-17T05:42:11.944Z,87.38
2023-01-17T05:43:08.493Z,87.68
2023-01-17T05:44:05.104Z,87.41
2023-01-17T05:45:01.580Z,87.41
2023-01-17T05:45:58.128Z,87.25
2023-01-17T05:46:55.339Z,87.81
2023-01-17T05:47:52.608Z,87.71
2023-01-17T05:48:49.030Z,87.36
2023-01-17T05:49:46.037Z,88.15
2023-01-17T05:50:42.567Z,88.47
2023-01-17T05:51:39.715Z,88.42
2023-01-17T05:52:36.231Z,88.78
2023-01-17T05:53:33.029Z,88.70
2023-01-17T05:54:29.550Z,88.46
2023-01-17T05:55:27.167Z,88.10
2023-01-17T05:56:23.632Z,88.27
2023-01-17T05:57:20.092Z,87.90
2023-01-17T05:58:18.097Z,87.79
2023-01-17T05:59:14.815Z,87.28
2023-01-17T06:00:12.203Z,86.95
2023-01-17T06:01:08.776Z,86.95
2023-01-17T06:02:05.299Z,87.96
2023-01-17T06:03:01.862Z,87.71
2023-01-17T06:03:58.325Z,87.87
2023-01-17T06:04:55.096Z,86.78
2023-01-17T06:05:51.651Z,86.68
2023-01-17T06:06:48.138Z,86.93
2023-01-17T06:07:45.911Z,86.64
2023-01-17T06:08:42.509Z,86.40
2023-01-17T06:09:39.005Z,86.14
2023-01-17T06:10:35.817Z,86.13
2023-01-17T06:11:32.292Z,86.01
2023-01-17T06:12:28.799Z,85.95
2023-01-17T06:13:25.330Z,85.79
2023-01-17T06:14:21.805Z,85.44
2023-01-17T06:15:18.485Z,85.80
2023-01-17T06:16:15.082Z,85.36
2023-01-17T06:17:11.601Z,85.08
2023-01-17T06:18:12.373Z,85.25
2023-01-17T06:19:09.546Z,85.04
2023-01-17T06:20:07.228Z,85.06
2023-01-17T06:21:03.780Z,84.26
2023-01-17T06:22:00.247Z,84.26
2023-01-17T06:22:59.528Z,83.92
2023-01-17T06:23:56.156Z,83.72
2023-01-17T06:24:52.687Z,83.97
2023-01-17T06:25:49.159Z,83.31
2023-01-17T06:26:45.677Z,83.01
2023-01-17T06:27:42.174Z,82.43
2023-01-17T06:28:38.721Z,81.95
2023-01-17T06:29:35.226Z,81.82
2023-01-17T06:30:31.691Z,82.03
2023-01-17T06:31:28.171Z,82.38
2023-01-17T06:32:24.660Z,82.67
2023-01-17T06:33:21.226Z,82.95
2023-01-17T06:34:18.003Z,82.97
2023-01-17T06:35:14.499Z,82.65
2023-01-17T06:36:10.987Z,81.65
2023-01-17T06:37:07.986Z,80.87
2023-01-17T06:38:04.542Z,80.52
2023-01-17T06:39:01.059Z,80.77
2023-01-17T06:39:57.601Z,81.50
2023-01-17T06:40:54.972Z,81.78
2023-01-17T06:41:51.449Z,81.88
2023-01-17T06:42:48.127Z,81.86
2023-01-17T06:43:44.635Z,81.86
2023-01-17T06:44:41.139Z,83.28
2023-01-17T06:45:37.679Z,83.61
2023-01-17T06:46:34.189Z,83.83
2023-01-17T06:47:30.680Z,83.52
2023-01-17T06:48:27.248Z,83.25
2023-01-17T06:49:23.927Z,83.46
2023-01-17T06:50:20.398Z,83.05
2023-01-17T06:51:17.371Z,82.44
2023-01-17T06:52:13.881Z,82.20
2023-01-17T06:53:10.391Z,81.76
2023-01-17T06:54:06.889Z,81.66
2023-01-17T06:55:03.829Z,81.80
2023-01-17T06:56:00.286Z,82.23
2023-01-17T06:56:56.738Z,81.25
2023-01-17T06:57:53.686Z,82.13
2023-01-17T06:58:50.794Z,81.55
2023-01-17T06:59:48.538Z,81.15
2023-01-17T07:00:45.820Z,80.28
2023-01-17T07:01:42.352Z,79.96
2023-01-17T07:02:38.908Z,80.23
2023-01-17T07:03:35.903Z,80.08
2023-01-17T07:04:34.363Z,79.65
2023-01-17T07:05:30.888Z,80.14
2023-01-17T07:06:28.963Z,80.81
2023-01-17T07:07:25.631Z,80.21
2023-01-17T07:08:22.296Z,80.27
2023-01-17T07:09:18.760Z,80.58
2023-01-17T07:10:15.698Z,80.95
2023-01-17T07:11:12.193Z,81.37
2023-01-17T07:12:08.712Z,81.29
2023-01-17T07:13:05.283Z,81.05
2023-01-17T07:14:01.802Z,81.05
2023-01-17T07:14:58.335Z,81.30
2023-01-17T07:15:54.902Z,79.81
2023-01-17T07:16:51.440Z,78.71
2023-01-17T07:17:47.968Z,79.10
2023-01-17T07:18:44.577Z,78.62
2023-01-17T07:19:41.006Z,77.58
2023-01-17T07:20:38.554Z,76.98
2023-01-17T07:21:35.030Z,77.42
2023-01-17T07:22:31.644Z,79.52
2023-01-17T07:23:28.102Z,78.90
2023-01-17T07:24:24.606Z,78.88
2023-01-17T07:25:21.207Z,78.62
2023-01-17T07:26:18.055Z,78.31
2023-01-17T07:27:14.571Z,77.46
2023-01-17T07:28:11.057Z,76.68
2023-01-17T07:29:07.627Z,77.09
2023-01-17T07:30:04.436Z,77.24
2023-01-17T07:31:04.988Z,77.79
2023-01-17T07:32:03.253Z,77.68
2023-01-17T07:32:59.788Z,77.42
2023-01-17T07:33:56.284Z,77.30
2023-01-17T07:34:52.952Z,76.94
2023-01-17T07:35:49.437Z,77.28
2023-01-17T07:36:48.126Z,76.67
2023-01-17T07:37:50.976Z,76.95
2023-01-17T07:38:47.416Z,77.34
2023-01-17T07:39:43.928Z,77.36
2023-01-17T07:40:42.325Z,77.85
2023-01-17T07:41:41.431Z,77.72
2023-01-17T07:42:38.229Z,78.23
2023-01-17T07:43:35.489Z,77.83
2023-01-17T07:44:31.976Z,77.37
2023-01-17T07:45:28.420Z,76.96
2023-01-17T07:46:25.034Z,77.63
2023-01-17T07:47:21.509Z,76.68
2023-01-17T07:48:18.900Z,76.41
2023-01-17T07:49:15.407Z,76.19
2023-01-17T07:50:13.027Z,76.24
2023-01-17T07:51:09.613Z,76.48
2023-01-17T07:52:07.101Z,77.44
2023-01-17T07:53:03.923Z,78.47
2023-01-17T07:54:00.457Z,76.83
2023-01-17T07:54:56.949Z,76.28
2023-01-17T07:55:53.416Z,76.28
2023-01-17T07:56:49.884Z,76.23
2023-01-17T07:57:48.727Z,76.01
2023-01-17T07:58:45.252Z,76.34
2023-01-17T07:59:41.761Z,76.23
2023-01-17T08:00:38.353Z,76.17
2023-01-17T08:01:35.013Z,75.90
2023-01-17T08:02:31.585Z,75.46
2023-01-17T08:03:32.268Z,73.92
2023-01-17T08:04:34.674Z,73.93
2023-01-17T08:05:31.864Z,74.27
2023-01-17T08:06:29.307Z,74.15
2023-01-17T08:07:25.840Z,74.00
2023-01-17T08:08:22.378Z,74.12
2023-01-17T08:09:18.842Z,74.13
2023-01-17T08:10:18.260Z,73.82
2023-01-17T08:11:14.852Z,73.92
2023-01-17T08:12:11.293Z,74.22
2023-01-17T08:13:07.838Z,74.76
2023-01-17T08:14:04.337Z,74.55
2023-01-17T08:15:00.799Z,74.27
2023-01-17T08:15:57.323Z,74.98
2023-01-17T08:16:53.872Z,75.14
2023-01-17T08:17:53.279Z,75.41
2023-01-17T08:18:49.907Z,74.46
2023-01-17T08:19:46.408Z,73.78
2023-01-17T08:20:45.730Z,74.05
2023-01-17T08:21:42.163Z,74.09
2023-01-17T08:22:38.778Z,74.32
2023-01-17T08:23:35.216Z,73.03
2023-01-17T08:24:31.634Z,73.52
2023-01-17T08:25:28.223Z,73.79
2023-01-17T08:26:24.658Z,74.43
2023-01-17T08:27:21.162Z,74.45
2023-01-17T08:28:19.776Z,73.85
2023-01-17T08:29:16.342Z,73.42
2023-01-17T08:30:12.897Z,73.43
2023-01-17T08:31:09.735Z,73.79
2023-01-17T08:32:06.402Z,71.54
2023-01-17T08:33:02.876Z,69.70
2023-01-17T08:33:59.425Z,71.01
2023-01-17T08:34:57.245Z,71.69
2023-01-17T08:35:54.477Z,71.02
2023-01-17T08:36:52.136Z,70.86
2023-01-17T08:37:49.155Z,69.35
2023-01-17T08:38:45.636Z,70.09
2023-01-17T08:39:42.137Z,69.51
2023-01-17T08:40:38.655Z,69.79
2023-01-17T08:41:36.051Z,70.18
2023-01-17T08:42:37.386Z,70.34
2023-01-17T08:43:33.875Z,69.96
2023-01-17T08:44:30.415Z,69.95
2023-01-17T08:45:27.551Z,70.78
2023-01-17T08:46:24.555Z,70.36
2023-01-17T08:47:21.060Z,69.23
2023-01-17T08:48:17.677Z,69.85
2023-01-17T08:49:14.354Z,70.06
2023-01-17T08:50:10.968Z,70.99
2023-01-17T08:51:07.494Z,71.70
2023-01-17T08:52:05.324Z,71.80
2023-01-17T08:53:01.844Z,71.59
2023-01-17T08:53:58.676Z,71.11
2023-01-17T08:54:55.276Z,71.31
2023-01-17T08:55:57.622Z,71.38
2023-01-17T08:56:55.722Z,71.62
2023-01-17T08:57:54.443Z,71.16
2023-01-17T08:58:50.974Z,70.62
2023-01-17T08:59:47.654Z,71.12
2023-01-17T09:00:44.234Z,71.51
2023-01-17T09:01:42.072Z,72.68
2023-01-17T09:02:38.730Z,71.03
2023-01-17T09:03:35.268Z,69.40
2023-01-17T09:04:31.785Z,69.56
2023-01-17T09:05:30.471Z,70.58
2023-01-17T09:06:27.103Z,69.89
2023-01-17T09:07:24.482Z,70.32
2023-01-17T09:08:20.989Z,68.39
2023-01-17T09:09:17.761Z,68.66
2023-01-17T09:10:14.324Z,67.82
2023-01-17T09:11:11.757Z,67.97
2023-01-17T09:12:08.424Z,68.17
2023-01-17T09:13:08.091Z,69.19
2023-01-17T09:14:04.539Z,68.49
2023-01-17T09:15:02.382Z,68.86
2023-01-17T09:15:59.559Z,69.05
2023-01-17T09:16:56.062Z,69.40
2023-01-17T09:17:56.748Z,68.84
2023-01-17T09:18:54.250Z,69.94
2023-01-17T09:19:51.354Z,71.56
2023-01-17T09:20:49.759Z,71.82
2023-01-17T09:21:46.267Z,72.09
2023-01-17T09:22:42.805Z,70.87
2023-01-17T09:23:39.433Z,71.08
2023-01-17T09:24:35.965Z,71.29
2023-01-17T09:25:32.475Z,72.06
2023-01-17T09:26:30.060Z,72.17
2023-01-17T09:27:26.509Z,69.78
2023-01-17T09:28:23.678Z,69.52
2023-01-17T09:29:20.264Z,68.61
2023-01-17T09:30:17.037Z,67.50
2023-01-17T09:31:15.032Z,68.49
2023-01-17T09:32:13.123Z,70.34
2023-01-17T09:33:09.649Z,70.34
2023-01-17T09:34:06.082Z,67.56
2023-01-17T09:35:03.334Z,67.68
2023-01-17T09:36:04.508Z,67.93
2023-01-17T09:37:01.067Z,68.95
2023-01-17T09:37:58.304Z,68.63
2023-01-17T09:38:58.073Z,67.92
2023-01-17T09:39:54.572Z,66.92
2023-01-17T09:40:51.211Z,67.31
2023-01-17T09:41:50.486Z,67.17
2023-01-17T09:42:50.589Z,67.90
2023-01-17T09:43:50.436Z,68.43
2023-01-17T09:44:49.007Z,68.80
2023-01-17T09:45:45.554Z,68.51
2023-01-17T09:46:43.943Z,68.40
2023-01-17T09:47:42.669Z,68.40
2023-01-17T09:48:39.930Z,67.14
2023-01-17T09:49:42.270Z,68.47
2023-01-17T09:50:50.534Z,68.31
2023-01-17T09:51:47.135Z,67.21
2023-01-17T09:52:44.241Z,66.38
2023-01-17T09:53:41.747Z,66.68
2023-01-17T09:54:40.876Z,66.84
2023-01-17T09:55:41.708Z,67.86
2023-01-17T09:56:42.733Z,68.63
2023-01-17T09:58:00.495Z,67.83
2023-01-17T09:59:02.887Z,68.11
2023-01-17T10:00:05.892Z,67.89
2023-01-17T10:01:15.703Z,69.33
2023-01-17T10:02:32.380Z,67.79
2023-01-17T10:03:29.059Z,67.40
2023-01-17T10:04:40.347Z,68.07
2023-01-17T10:05:45.656Z,68.33
2023-01-17T10:06:45.367Z,67.61
2023-01-17T10:08:04.926Z,68.08
2023-01-17T10:09:19.839Z,68.04
2023-01-17T10:10:29.315Z,68.88
2023-01-17T10:11:41.518Z,68.25
2023-01-17T10:12:55.174Z,68.61
2023-01-17T10:13:54.780Z,67.52
2023-01-17T10:14:57.141Z,67.69
2023-01-17T10:15:56.549Z,67.05
2023-01-17T10:16:58.981Z,66.98
2023-01-17T10:17:55.433Z,67.64
2023-01-17T10:19:04.356Z,66.76
2023-01-17T10:20:04.311Z,66.97
2023-01-17T10:21:04.626Z,67.37
2023-01-17T10:22:02.290Z,66.38
2023-01-17T10:23:18.062Z,65.15
2023-01-17T10:24:37.883Z,65.41
2023-01-17T10:25:42.960Z,65.42
2023-01-17T10:26:39.662Z,66.11
2023-01-17T10:27:41.977Z,66.82
2023-01-17T10:28:42.398Z,66.89
2023-01-17T10:29:41.272Z,66.31
2023-01-17T10:30:45.080Z,66.11
2023-01-17T10:31:45.611Z,66.24
2023-01-17T10:32:45.784Z,67.51
2023-01-17T10:33:50.783Z,67.55
2023-01-17T10:34:51.517Z,65.99
2023-01-17T10:36:10.241Z,66.15
2023-01-17T10:37:18.373Z,65.90
2023-01-17T10:38:17.026Z,65.48
2023-01-17T10:39:21.103Z,65.21
2023-01-17T10:40:40.997Z,66.01
2023-01-17T10:41:39.968Z,66.06
2023-01-17T10:42:42.240Z,66.15
2023-01-17T10:43:57.545Z,65.98
2023-01-17T10:45:04.242Z,66.07
2023-01-17T10:46:01.517Z,66.42
2023-01-17T10:46:58.025Z,66.00
2023-01-17T10:48:12.832Z,65.83
2023-01-17T10:49:16.737Z,65.91
2023-01-17T10:50:13.486Z,66.16
2023-01-17T10:51:19.624Z,65.89
2023-01-17T10:52:16.667Z,65.17
2023-01-17T10:53:20.671Z,64.99
2023-01-17T10:54:44.274Z,65.05
2023-01-17T10:55:53.369Z,65.19
2023-01-17T10:56:49.950Z,64.49
2023-01-17T10:57:48.313Z,64.53
2023-01-17T10:58:48.172Z,64.75
2023-01-17T10:59:45.242Z,64.88
2023-01-17T11:00:50.845Z,65.39
2023-01-17T11:01:49.193Z,64.71
2023-01-17T11:02:50.625Z,64.48
2023-01-17T11:03:51.220Z,64.82
2023-01-17T11:04:51.091Z,64.44
2023-01-17T11:06:08.378Z,64.21
2023-01-17T11:07:11.340Z,64.19
2023-01-17T11:08:08.641Z,65.01
2023-01-17T11:09:11.859Z,64.50
2023-01-17T11:10:28.313Z,64.51
2023-01-17T11:11:26.284Z,64.71
2023-01-17T11:12:22.793Z,64.07
2023-01-17T11:13:25.339Z,64.29
2023-01-17T11:14:26.145Z,64.34
2023-01-17T11:15:25.977Z,63.63
2023-01-17T11:16:27.615Z,63.88
2023-01-17T11:17:25.172Z,64.09
2023-01-17T11:18:22.503Z,63.92
2023-01-17T11:19:30.510Z,63.28
2023-01-17T11:20:34.048Z,63.67
2023-01-17T11:21:30.843Z,63.11
2023-01-17T11:22:27.547Z,63.50
2023-01-17T11:23:29.446Z,63.05
2023-01-17T11:24:35.293Z,63.29
2023-01-17T11:25:35.792Z,63.55
2023-01-17T11:26:34.402Z,62.84
2023-01-17T11:27:30.846Z,63.26
2023-01-17T11:28:30.468Z,62.97
2023-01-17T11:29:31.150Z,62.98
2023-01-17T11:30:30.350Z,62.40
2023-01-17T11:31:27.405Z,62.41
2023-01-17T11:32:26.868Z,62.24
2023-01-17T11:33:47.008Z,63.07
2023-01-17T11:34:43.473Z,61.79
2023-01-17T11:35:46.250Z,62.04
2023-01-17T11:36:43.188Z,62.57
2023-01-17T11:37:48.724Z,62.21
2023-01-17T11:38:59.421Z,62.41
2023-01-17T11:40:06.938Z,62.62
2023-01-17T11:41:20.345Z,62.08
2023-01-17T11:42:38.458Z,62.30
2023-01-17T11:43:48.725Z,61.95
2023-01-17T11:44:45.218Z,62.63
2023-01-17T11:45:41.767Z,61.88
2023-01-17T11:46:39.063Z,62.18
2023-01-17T11:47:35.561Z,61.90
2023-01-17T11:48:38.782Z,61.70
2023-01-17T11:49:35.393Z,61.63
2023-01-17T11:50:31.924Z,61.46
2023-01-17T11:51:30.379Z,61.09
2023-01-17T11:52:33.096Z,61.77
2023-01-17T11:53:34.754Z,61.48
2023-01-17T11:54:39.597Z,61.16
2023-01-17T11:55:36.433Z,61.16
2023-01-17T11:56:35.050Z,61.01
2023-01-17T11:57:33.429Z,61.50
2023-01-17T11:58:30.283Z,61.51
2023-01-17T11:59:40.027Z,61.28
2023-01-17T12:00:46.116Z,61.43
2023-01-17T12:01:55.884Z,61.21
2023-01-17T12:03:15.201Z,61.35
2023-01-17T12:04:45.493Z,58.04
2023-01-17T12:06:23.340Z,55.96
2023-01-17T12:07:25.974Z,58.24
2023-01-17T12:08:31.609Z,59.42
2023-01-17T12:09:40.104Z,59.17
2023-01-17T12:10:57.592Z,60.06
2023-01-17T12:12:36.995Z,59.64
2023-01-17T12:14:01.752Z,59.51
2023-01-17T12:15:17.146Z,60.53
2023-01-17T12:16:31.602Z,60.33
2023-01-17T12:17:45.234Z,60.42
2023-01-17T12:18:57.467Z,59.92
2023-01-17T12:20:00.944Z,59.71
2023-01-17T12:21:31.450Z,59.20
2023-01-17T12:22:45.111Z,58.99
2023-01-17T12:23:50.698Z,59.35
2023-01-17T12:24:56.253Z,59.34
2023-01-17T12:26:13.291Z,59.26
2023-01-17T12:27:16.343Z,59.30
2023-01-17T12:28:56.257Z,59.37
2023-01-17T12:30:07.824Z,59.97
2023-01-17T12:31:40.128Z,59.19
2023-01-17T12:33:31.159Z,59.40
2023-01-17T12:34:39.112Z,59.49
2023-01-17T12:35:46.476Z,59.32
2023-01-17T12:36:52.254Z,59.80
2023-01-17T12:38:04.638Z,59.04
2023-01-17T12:39:07.976Z,58.90
2023-01-17T12:40:17.029Z,59.61
2023-01-17T12:41:46.065Z,59.09
2023-01-17T12:43:01.074Z,59.61
2023-01-17T12:44:00.758Z,59.49
2023-01-17T12:45:05.661Z,58.81
2023-01-17T12:46:28.689Z,58.99
2023-01-17T12:47:25.680Z,59.52
2023-01-17T12:48:28.633Z,59.26
2023-01-17T12:49:45.987Z,58.54
2023-01-17T12:50:50.181Z,58.70
2023-01-17T12:51:53.044Z,59.24
2023-01-17T12:52:58.606Z,58.69
2023-01-17T12:53:55.129Z,59.24
2023-01-17T12:54:58.025Z,59.31
2023-01-17T12:56:24.301Z,58.71
2023-01-17T12:57:36.679Z,58.78
2023-01-17T12:59:01.107Z,58.95
2023-01-17T13:00:10.766Z,58.23
2023-01-17T13:01:23.829Z,58.58
2023-01-17T13:02:47.727Z,59.13
2023-01-17T13:04:00.346Z,58.90
2023-01-17T13:05:11.361Z,58.78
2023-01-17T13:06:08.438Z,58.95